Time;durP1;ratioP1;P1;durP2;ratioP2;P2;SDS_P1;SDS_P2;PMS_P1;PMS_P2;Temp;Humidity;BMP_temperature;BMP_pressure;BME280_temperature;BME280_humidity;BME280_pressure;Samples;Min_cycle;Max_cycle;Signal;HPM_P1;HPM_P2
2022/04/01 00:02:03;;;;;;;39.67;19.40;;;7.30;73.50;;;;;;5059930;28;47048;-62
2022/04/01 00:04:29;;;;;;;33.63;17.30;;;7.30;73.50;;;;;;5059723;28;46610;-63
2022/04/01 00:06:54;;;;;;;40.33;20.47;;;7.20;74.10;;;;;;5060133;28;45848;-63
2022/04/01 00:09:20;;;;;;;44.20;21.10;;;7.20;73.90;;;;;;5057221;28;46320;-63
2022/04/01 00:11:46;;;;;;;40.57;19.20;;;7.30;74.00;;;;;;5058795;28;46453;-63
2022/04/01 00:14:11;;;;;;;36.50;18.73;;;7.40;73.80;;;;;;5058916;28;46389;-63
2022/04/01 00:16:37;;;;;;;29.17;15.93;;;7.30;74.20;;;;;;5057813;28;46406;-62
2022/04/01 00:19:03;;;;;;;32.80;17.40;;;7.30;74.20;;;;;;5058378;28;45856;-62
2022/04/01 00:21:28;;;;;;;18.90;9.87;;;7.30;74.00;;;;;;5058176;28;47027;-62
2022/04/01 00:23:54;;;;;;;7.53;4.90;;;7.30;74.10;;;;;;5060291;28;46440;-63
2022/04/01 00:26:20;;;;;;;7.77;4.27;;;7.00;75.30;;;;;;5059133;28;46386;-63
2022/04/01 00:28:45;;;;;;;8.37;4.30;;;6.80;75.20;;;;;;5057795;28;46329;-62
2022/04/01 00:31:11;;;;;;;8.90;4.50;;;6.60;77.50;;;;;;5058670;28;47000;-62
2022/04/01 00:33:36;;;;;;;10.40;4.20;;;6.60;76.80;;;;;;5061908;28;46447;-63
2022/04/01 00:36:03;;;;;;;9.50;4.20;;;6.50;77.10;;;;;;5059571;28;46535;-63
2022/04/01 00:38:28;;;;;;;6.50;3.73;;;6.40;77.90;;;;;;5063514;28;46223;-62
2022/04/01 00:40:54;;;;;;;7.47;3.93;;;6.40;78.30;;;;;;5062530;28;47392;-63
2022/04/01 00:43:31;;;;;;;6.20;3.40;;;6.30;78.50;;;;;;5063400;28;46032;-62
2022/04/01 00:45:59;;;;;;;7.50;3.60;;;6.30;78.70;;;;;;5058947;28;46488;-65
2022/04/01 00:48:26;;;;;;;6.47;3.80;;;6.20;78.80;;;;;;5061729;28;46406;-64
2022/04/01 00:50:53;;;;;;;9.40;3.60;;;6.20;78.80;;;;;;5061107;28;46629;-64
2022/04/01 00:53:20;;;;;;;6.80;4.00;;;6.20;79.20;;;;;;5062518;28;46530;-64
2022/04/01 00:55:47;;;;;;;6.80;4.03;;;6.10;79.10;;;;;;5062359;28;46282;-65
2022/04/01 00:58:13;;;;;;;5.70;4.20;;;6.20;78.90;;;;;;5056582;28;46501;-64
2022/04/01 01:00:38;;;;;;;7.37;4.50;;;6.20;78.60;;;;;;5055418;28;46318;-64
2022/04/01 01:03:05;;;;;;;7.67;4.30;;;6.20;78.40;;;;;;5062408;28;45834;-64
2022/04/01 01:05:31;;;;;;;6.43;3.90;;;6.20;78.20;;;;;;5062512;28;46458;-66
2022/04/01 01:07:57;;;;;;;5.07;3.80;;;6.10;78.20;;;;;;5060491;28;46400;-63
2022/04/01 01:10:24;;;;;;;5.50;3.40;;;6.00;78.70;;;;;;5055348;28;46728;-64
2022/04/01 01:12:51;;;;;;;4.57;3.20;;;6.00;78.60;;;;;;5056626;28;46601;-65
2022/04/01 01:15:18;;;;;;;5.47;3.13;;;6.00;78.50;;;;;;5062132;28;46624;-64
2022/04/01 01:17:45;;;;;;;5.33;3.00;;;6.00;78.30;;;;;;5061635;28;46568;-63
2022/04/01 01:20:15;;;;;;;6.63;3.97;;;6.00;78.50;;;;;;5059597;28;46473;-64
2022/04/01 01:22:41;;;;;;;5.30;3.20;;;6.00;78.30;;;;;;5062079;28;46299;-64
2022/04/01 01:25:12;;;;;;;4.30;2.63;;;5.90;78.20;;;;;;5060404;28;46609;-63
2022/04/01 01:27:38;;;;;;;4.40;2.90;;;5.90;79.60;;;;;;5050197;28;46578;-64
2022/04/01 01:30:05;;;;;;;5.53;2.70;;;5.80;78.90;;;;;;5054520;28;46437;-65
2022/04/01 01:32:32;;;;;;;4.90;3.10;;;5.70;79.30;;;;;;5061597;28;46339;-66
2022/04/01 01:34:59;;;;;;;4.57;2.63;;;5.60;79.40;;;;;;5053736;28;46620;-65
2022/04/01 01:37:25;;;;;;;4.13;3.13;;;5.60;79.10;;;;;;5060436;28;46503;-65
2022/04/01 01:39:51;;;;;;;5.87;3.30;;;5.70;78.80;;;;;;5054555;28;46604;-65
2022/04/01 01:42:17;;;;;;;5.50;3.70;;;5.60;78.60;;;;;;5057014;28;46384;-64
2022/04/01 01:44:43;;;;;;;4.67;3.23;;;5.60;78.80;;;;;;5059822;28;46488;-64
2022/04/01 01:47:08;;;;;;;4.63;3.00;;;5.60;78.80;;;;;;5050091;28;46587;-64
2022/04/01 01:49:34;;;;;;;4.10;3.10;;;5.60;78.90;;;;;;5061294;28;46383;-66
2022/04/01 01:54:49;;;;;;;3.30;2.67;;;5.50;79.00;;;;;;5056915;28;46362;-64
2022/04/01 01:57:24;;;;;;;6.00;2.80;;;5.50;79.20;;;;;;5059492;28;46735;-63
2022/04/01 01:59:52;;;;;;;4.00;2.73;;;5.50;78.90;;;;;;5056757;28;47052;-64
2022/04/01 02:02:19;;;;;;;4.93;2.90;;;5.50;79.00;;;;;;5060448;28;46469;-64
2022/04/01 02:04:49;;;;;;;4.10;2.77;;;5.50;78.80;;;;;;5060226;28;46388;-64
2022/04/01 02:07:15;;;;;;;3.23;2.30;;;5.50;78.50;;;;;;5058743;28;46553;-64
2022/04/01 02:09:43;;;;;;;3.90;2.17;;;5.50;78.20;;;;;;5061309;28;47139;-64
2022/04/01 02:12:09;;;;;;;3.10;2.50;;;5.60;78.00;;;;;;5060956;28;46413;-65
2022/04/01 02:14:36;;;;;;;4.57;2.77;;;5.50;77.50;;;;;;5060841;28;46752;-64
2022/04/01 02:17:02;;;;;;;4.33;2.60;;;5.60;77.30;;;;;;5059089;28;46437;-64
2022/04/01 02:19:30;;;;;;;5.57;3.60;;;5.60;76.90;;;;;;5058946;28;48038;-64
2022/04/01 02:21:56;;;;;;;5.93;2.97;;;5.60;76.70;;;;;;5060400;28;46149;-64
2022/04/01 02:24:24;;;;;;;7.40;3.17;;;5.70;76.70;;;;;;5059772;28;46571;-64
2022/04/01 02:26:50;;;;;;;4.47;3.23;;;5.70;76.20;;;;;;5058542;28;45899;-64
2022/04/01 02:29:20;;;;;;;4.90;3.07;;;5.70;76.10;;;;;;5055969;28;46591;-65
2022/04/01 02:31:47;;;;;;;4.33;3.00;;;5.70;75.90;;;;;;5061072;28;46668;-64
2022/04/01 02:34:13;;;;;;;4.07;3.43;;;5.70;75.90;;;;;;5058350;28;46419;-64
2022/04/01 02:36:38;;;;;;;5.10;3.30;;;5.60;75.80;;;;;;5058464;28;46438;-64
2022/04/01 02:39:05;;;;;;;3.83;2.80;;;5.70;75.80;;;;;;5058380;28;46372;-64
2022/04/01 02:41:32;;;;;;;4.30;3.00;;;5.60;75.80;;;;;;5058614;28;45807;-64
2022/04/01 02:44:08;;;;;;;3.87;3.17;;;5.60;75.60;;;;;;5058260;28;45886;-64
2022/04/01 02:46:39;;;;;;;4.40;2.97;;;5.70;75.40;;;;;;5058991;28;46479;-65
2022/04/01 02:49:07;;;;;;;4.27;3.20;;;5.70;75.20;;;;;;5063902;28;47183;-65
2022/04/01 02:51:37;;;;;;;3.83;2.57;;;5.60;76.30;;;;;;5060027;28;46478;-64
2022/04/01 02:54:07;;;;;;;3.70;2.20;;;5.70;75.00;;;;;;5058955;28;46404;-63
2022/04/01 02:56:34;;;;;;;4.50;3.13;;;5.60;75.00;;;;;;5057400;28;46480;-64
2022/04/01 02:59:02;;;;;;;3.70;2.50;;;5.70;75.00;;;;;;5056933;28;46464;-64
2022/04/01 03:01:28;;;;;;;3.37;2.40;;;5.60;75.00;;;;;;5058170;28;45778;-63
2022/04/01 03:03:55;;;;;;;4.03;2.77;;;5.50;75.10;;;;;;5057287;28;46685;-63
2022/04/01 03:06:21;;;;;;;3.73;2.40;;;5.50;75.20;;;;;;5057972;28;46628;-63
2022/04/01 03:08:48;;;;;;;3.87;2.70;;;5.40;75.20;;;;;;5057675;28;46657;-63
2022/04/01 03:11:13;;;;;;;3.33;2.20;;;5.40;75.20;;;;;;5060419;28;46499;-62
2022/04/01 03:13:39;;;;;;;2.70;2.00;;;5.30;75.30;;;;;;5057759;28;46457;-63
2022/04/01 03:16:04;;;;;;;3.17;2.10;;;5.20;75.30;;;;;;5058839;28;46402;-62
2022/04/01 03:18:30;;;;;;;3.67;2.40;;;5.20;75.30;;;;;;5060220;28;46428;-65
2022/04/01 03:20:56;;;;;;;3.53;2.13;;;5.20;75.30;;;;;;5055806;28;46444;-64
2022/04/01 03:23:21;;;;;;;3.07;2.20;;;5.10;76.40;;;;;;5056941;28;46418;-64
2022/04/01 03:25:47;;;;;;;2.97;2.13;;;5.10;75.20;;;;;;5058972;28;46445;-64
2022/04/01 03:28:13;;;;;;;3.57;2.00;;;5.10;75.20;;;;;;5057227;28;47820;-65
2022/04/01 03:30:39;;;;;;;3.30;3.00;;;5.00;74.90;;;;;;5057632;28;45766;-65
2022/04/01 03:33:05;;;;;;;3.10;2.00;;;5.00;74.80;;;;;;5060268;28;46269;-65
2022/04/01 03:35:32;;;;;;;4.50;2.80;;;4.90;75.00;;;;;;5058807;28;46300;-64
2022/04/01 03:37:59;;;;;;;2.20;1.80;;;4.90;75.00;;;;;;5050943;28;47112;-65
2022/04/01 03:40:30;;;;;;;2.83;1.98;;;4.80;75.10;;;;;;5060127;28;46455;-64
2022/04/01 03:42:56;;;;;;;4.57;2.20;;;4.80;75.10;;;;;;5056687;28;46331;-64
2022/04/01 03:45:22;;;;;;;3.17;2.33;;;4.60;74.90;;;;;;5060351;28;46510;-64
2022/04/01 03:47:52;;;;;;;2.27;1.90;;;4.60;75.00;;;;;;5058320;28;47130;-64
2022/04/01 03:50:24;;;;;;;2.40;1.97;;;4.50;74.90;;;;;;5059950;28;46227;-64
2022/04/01 03:52:56;;;;;;;2.43;2.17;;;4.50;74.80;;;;;;5050985;28;46372;-64
2022/04/01 03:55:26;;;;;;;2.87;2.40;;;4.50;74.40;;;;;;5060751;28;45842;-64
2022/04/01 03:57:55;;;;;;;2.80;1.87;;;4.40;74.30;;;;;;5053089;28;47135;-64
2022/04/01 04:00:21;;;;;;;2.50;2.08;;;4.30;74.10;;;;;;5060191;28;46395;-65
2022/04/01 04:02:46;;;;;;;2.33;1.70;;;4.30;74.10;;;;;;5058445;28;46495;-67
2022/04/01 04:05:13;;;;;;;3.10;2.00;;;4.30;74.10;;;;;;5054861;28;46589;-66
2022/04/01 04:07:40;;;;;;;2.97;2.30;;;4.30;74.10;;;;;;5051213;28;46455;-62
2022/04/01 04:10:07;;;;;;;2.53;2.10;;;4.30;73.50;;;;;;5061284;28;47241;-64
2022/04/01 04:12:35;;;;;;;3.33;2.60;;;4.30;73.40;;;;;;5056021;28;46695;-65
2022/04/01 04:15:02;;;;;;;2.77;2.20;;;4.20;73.00;;;;;;5063593;28;46636;-64
2022/04/01 04:17:46;;;;;;;4.90;2.93;;;4.20;73.60;;;;;;5056898;28;46521;-65
2022/04/01 04:20:30;;;;;;;2.97;1.90;;;4.10;73.60;;;;;;5063173;28;46579;-65
2022/04/01 04:23:16;;;;;;;2.45;1.90;;;4.10;73.50;;;;;;5061555;28;46329;-63
2022/04/01 04:25:53;;;;;;;2.53;1.90;;;4.10;73.40;;;;;;5063078;28;46385;-64
2022/04/01 04:28:25;;;;;;;2.80;2.07;;;4.00;73.50;;;;;;5062005;28;46328;-63
2022/04/01 04:30:55;;;;;;;2.40;1.95;;;3.90;74.10;;;;;;5062754;28;46414;-63
2022/04/01 04:33:26;;;;;;;3.07;1.97;;;3.80;74.10;;;;;;5064322;28;46462;-64
2022/04/01 04:35:51;;;;;;;2.53;1.93;;;3.80;74.10;;;;;;5067755;28;46410;-66
2022/04/01 04:38:20;;;;;;;4.23;2.10;;;3.80;73.90;;;;;;5062599;28;46415;-63
2022/04/01 04:40:46;;;;;;;3.17;2.20;;;3.80;74.00;;;;;;5058683;28;46410;-65
2022/04/01 04:43:18;;;;;;;2.40;1.80;;;3.70;73.80;;;;;;5057183;28;46698;-64
2022/04/01 04:45:49;;;;;;;2.23;1.70;;;3.70;74.10;;;;;;5059610;28;46463;-66
2022/04/01 04:48:16;;;;;;;3.10;1.50;;;3.50;74.40;;;;;;5063309;28;48237;-65
2022/04/01 04:50:47;;;;;;;2.55;1.92;;;3.50;74.70;;;;;;5062964;28;46811;-66
2022/04/01 04:53:12;;;;;;;1.95;1.70;;;3.50;74.80;;;;;;5062509;28;46339;-65
2022/04/01 04:55:40;;;;;;;2.73;1.90;;;3.50;74.60;;;;;;5063277;28;46353;-64
2022/04/01 04:58:09;;;;;;;2.43;1.80;;;3.50;74.50;;;;;;5061887;28;47196;-63
2022/04/01 05:00:37;;;;;;;2.58;1.58;;;3.40;74.90;;;;;;5062414;28;45925;-64
2022/04/01 05:03:12;;;;;;;2.00;1.42;;;3.50;75.10;;;;;;5063657;28;46503;-64
2022/04/01 05:05:47;;;;;;;1.77;1.30;;;3.40;74.90;;;;;;5063626;28;46356;-64
2022/04/01 05:08:57;;;;;;;2.35;1.80;;;3.30;75.20;;;;;;5061248;28;46390;-66
2022/04/01 05:11:29;;;;;;;1.80;1.50;;;3.30;75.30;;;;;;5062344;28;46445;-64
2022/04/01 05:14:13;;;;;;;2.25;1.50;;;3.30;75.40;;;;;;5060446;28;46290;-65
2022/04/01 05:16:54;;;;;;;2.53;1.70;;;3.30;75.10;;;;;;5060711;28;46530;-65
2022/04/01 05:19:31;;;;;;;1.92;1.50;;;3.40;75.20;;;;;;5060703;28;47019;-67
2022/04/01 05:22:07;;;;;;;1.30;1.20;;;3.30;75.10;;;;;;5062408;28;46537;-64
2022/04/01 05:24:50;;;;;;;1.73;1.50;;;3.30;75.30;;;;;;5061288;28;46703;-64
2022/04/01 05:27:24;;;;;;;1.80;1.53;;;3.30;75.20;;;;;;5061047;28;46240;-64
2022/04/01 05:30:20;;;;;;;1.95;1.58;;;3.40;74.90;;;;;;5060599;28;46452;-63
2022/04/01 05:32:59;;;;;;;3.25;1.70;;;3.40;75.10;;;;;;5057715;28;46294;-66
2022/04/01 05:35:31;;;;;;;2.25;1.48;;;3.30;75.10;;;;;;5056083;28;46399;-65
2022/04/01 05:37:59;;;;;;;2.57;1.83;;;3.40;75.10;;;;;;5061454;28;46275;-64
2022/04/01 05:40:27;;;;;;;2.60;1.70;;;3.40;75.20;;;;;;5061437;28;46320;-64
2022/04/01 05:42:54;;;;;;;2.05;1.60;;;3.40;75.20;;;;;;5059331;28;46129;-65
2022/04/01 05:45:20;;;;;;;2.80;1.75;;;3.30;75.10;;;;;;5057843;28;46485;-65
2022/04/01 05:47:47;;;;;;;2.40;1.30;;;3.40;75.50;;;;;;5057642;28;46832;-65
2022/04/01 05:50:18;;;;;;;3.60;1.25;;;3.30;75.30;;;;;;5061491;28;47054;-67
2022/04/01 05:52:49;;;;;;;1.30;1.00;;;3.30;75.50;;;;;;5059270;28;46468;-63
2022/04/01 05:55:17;;;;;;;1.63;1.13;;;3.30;75.60;;;;;;5059101;28;46290;-65
2022/04/01 05:57:44;;;;;;;1.23;1.02;;;3.30;75.70;;;;;;5056044;28;46473;-66
2022/04/01 06:00:13;;;;;;;2.13;1.30;;;3.30;75.40;;;;;;5059734;28;46541;-63
2022/04/01 06:02:49;;;;;;;1.60;1.17;;;3.40;75.40;;;;;;5061730;28;46421;-64
2022/04/01 06:05:33;;;;;;;2.10;1.00;;;3.40;75.50;;;;;;5057764;28;45783;-64
2022/04/01 06:08:20;;;;;;;1.70;1.15;;;3.40;75.60;;;;;;5060711;28;46155;-65
2022/04/01 06:11:07;;;;;;;0.97;0.80;;;3.30;75.60;;;;;;5060330;28;46983;-66
2022/04/01 06:14:05;;;;;;;1.40;0.90;;;3.40;75.60;;;;;;5052258;28;45874;-65
2022/04/01 06:16:57;;;;;;;1.45;1.00;;;3.50;75.50;;;;;;5059320;28;46698;-64
2022/04/01 06:19:42;;;;;;;1.63;0.80;;;3.50;75.30;;;;;;5060845;28;46453;-64
2022/04/01 06:22:16;;;;;;;2.13;1.10;;;3.50;75.50;;;;;;5061853;28;46427;-66
2022/04/01 06:24:51;;;;;;;1.17;0.98;;;3.40;75.70;;;;;;5053831;28;46358;-65
2022/04/01 06:27:34;;;;;;;1.52;0.80;;;3.40;75.70;;;;;;5051191;28;46374;-63
2022/04/01 06:30:14;;;;;;;1.10;1.00;;;3.50;75.60;;;;;;5050737;28;46475;-65
2022/04/01 06:33:05;;;;;;;3.80;0.90;;;3.50;75.30;;;;;;5058135;28;46431;-64
2022/04/01 06:35:38;;;;;;;1.60;1.00;;;3.60;75.20;;;;;;5050956;28;46604;-64
2022/04/01 06:38:05;;;;;;;1.80;0.90;;;3.60;75.20;;;;;;5054961;28;46329;-64
2022/04/01 06:40:58;;;;;;;1.42;0.90;;;3.60;75.00;;;;;;5060459;28;46398;-64
2022/04/01 06:43:25;;;;;;;1.27;0.90;;;3.60;74.90;;;;;;5056945;28;46450;-65
2022/04/01 06:45:50;;;;;;;1.40;0.88;;;3.60;74.90;;;;;;5056195;28;46380;-64
2022/04/01 06:48:16;;;;;;;1.47;1.10;;;3.60;74.70;;;;;;5061043;28;45845;-64
2022/04/01 06:50:42;;;;;;;2.27;1.10;;;3.60;74.60;;;;;;5062077;28;46625;-63
2022/04/01 06:53:09;;;;;;;1.20;0.95;;;3.60;74.70;;;;;;5057810;28;46517;-65
2022/04/01 06:55:37;;;;;;;2.47;1.02;;;3.60;74.70;;;;;;5057029;28;46454;-62
2022/04/01 06:58:05;;;;;;;1.70;0.95;;;3.80;74.50;;;;;;5057829;28;46355;-64
2022/04/01 07:00:30;;;;;;;1.20;0.90;;;3.70;74.40;;;;;;5060537;28;46199;-65
2022/04/01 07:02:57;;;;;;;3.37;1.77;;;3.70;74.20;;;;;;5059078;28;47394;-65
2022/04/01 07:05:22;;;;;;;1.58;1.05;;;3.80;73.90;;;;;;5054692;28;46745;-64
2022/04/01 07:07:48;;;;;;;1.10;0.83;;;4.00;73.60;;;;;;5058275;28;46494;-63
2022/04/01 07:10:14;;;;;;;1.37;0.90;;;4.00;73.30;;;;;;5056005;28;46412;-67
2022/04/01 07:12:40;;;;;;;1.00;0.80;;;4.20;72.90;;;;;;5045061;28;47932;-65
2022/04/01 07:15:10;;;;;;;1.37;0.80;;;4.30;73.00;;;;;;5055058;28;46328;-64
2022/04/01 07:17:36;;;;;;;2.28;0.80;;;4.30;73.10;;;;;;5056140;28;46322;-65
2022/04/01 07:20:02;;;;;;;1.37;0.83;;;4.30;73.10;;;;;;5057454;28;46381;-66
2022/04/01 07:22:28;;;;;;;1.50;0.90;;;4.30;73.00;;;;;;5060018;28;47240;-66
2022/04/01 07:24:53;;;;;;;2.10;0.90;;;4.30;73.10;;;;;;5059815;28;46313;-68
2022/04/01 07:27:19;;;;;;;1.70;0.83;;;4.40;73.20;;;;;;5059237;28;46425;-65
2022/04/01 07:29:44;;;;;;;1.97;0.80;;;4.30;73.10;;;;;;5059295;28;46623;-64
2022/04/01 07:34:55;;;;;;;1.10;0.70;;;4.50;73.20;;;;;;5056047;28;46759;-65
2022/04/01 07:37:23;;;;;;;1.23;0.85;;;4.50;73.30;;;;;;5055428;28;45893;-65
2022/04/01 07:39:51;;;;;;;1.30;0.70;;;4.50;74.30;;;;;;5058479;28;46370;-65
2022/04/01 07:42:18;;;;;;;1.63;0.90;;;4.60;73.30;;;;;;5057880;28;47113;-69
2022/04/01 07:44:44;;;;;;;3.38;0.90;;;4.50;73.20;;;;;;5058297;28;46450;-66
2022/04/01 07:47:10;;;;;;;4.57;1.00;;;4.50;73.20;;;;;;5058534;28;46413;-65
2022/04/01 07:49:40;;;;;;;1.30;0.97;;;4.60;73.30;;;;;;5056143;28;46434;-64
2022/04/01 07:52:08;;;;;;;1.37;0.87;;;4.60;73.20;;;;;;5055969;28;46092;-64
2022/04/01 07:54:35;;;;;;;1.70;1.00;;;4.60;72.90;;;;;;5056775;28;46402;-67
2022/04/01 07:57:04;;;;;;;2.70;1.10;;;4.70;72.90;;;;;;5055598;28;46432;-63
2022/04/01 07:59:30;;;;;;;1.80;0.90;;;4.70;72.70;;;;;;5056476;28;46482;-70
2022/04/01 08:01:57;;;;;;;1.50;1.10;;;4.90;72.00;;;;;;5055421;28;46993;-68
2022/04/01 08:04:23;;;;;;;1.38;0.82;;;5.00;71.60;;;;;;5055283;28;45864;-64
2022/04/01 08:06:49;;;;;;;1.10;0.80;;;5.00;71.40;;;;;;5054991;28;46690;-65
2022/04/01 08:09:14;;;;;;;1.20;0.73;;;5.00;71.60;;;;;;5058356;28;46799;-65
2022/04/01 08:11:40;;;;;;;1.67;1.00;;;5.10;71.20;;;;;;5054746;28;46474;-65
2022/04/01 08:14:06;;;;;;;2.33;0.83;;;5.00;71.30;;;;;;5058164;28;46454;-66
2022/04/01 08:16:31;;;;;;;1.20;0.80;;;4.90;71.80;;;;;;5053999;28;46423;-65
2022/04/01 08:18:58;;;;;;;2.37;0.80;;;4.90;71.80;;;;;;5056887;28;46265;-65
2022/04/01 08:21:24;;;;;;;1.83;0.80;;;4.90;71.70;;;;;;5054505;28;46430;-65
2022/04/01 08:23:50;;;;;;;1.30;0.90;;;4.90;71.70;;;;;;5054896;28;46397;-64
2022/04/01 08:26:15;;;;;;;2.20;0.90;;;4.80;71.90;;;;;;5057866;28;45829;-63
2022/04/01 08:28:44;;;;;;;1.20;0.83;;;4.80;72.30;;;;;;5054486;28;46268;-62
2022/04/01 08:31:10;;;;;;;3.27;0.80;;;4.70;72.20;;;;;;5052603;28;46859;-65
2022/04/01 08:33:38;;;;;;;5.97;2.97;;;4.70;72.20;;;;;;5056312;28;45910;-65
2022/04/01 08:36:04;;;;;;;1.40;0.90;;;4.80;71.90;;;;;;5051881;28;46606;-64
2022/04/01 08:38:30;;;;;;;1.50;0.90;;;4.80;71.70;;;;;;5053958;28;46292;-63
2022/04/01 08:40:56;;;;;;;1.50;1.00;;;4.80;71.80;;;;;;5058902;28;46289;-64
2022/04/01 08:43:26;;;;;;;1.77;0.90;;;4.90;71.70;;;;;;5055595;28;46373;-64
2022/04/01 08:45:52;;;;;;;1.80;0.80;;;4.90;71.70;;;;;;5055055;28;46363;-65
2022/04/01 08:48:18;;;;;;;0.90;0.60;;;4.90;71.50;;;;;;5053918;28;46251;-63
2022/04/01 08:50:44;;;;;;;2.60;1.00;;;4.90;71.60;;;;;;5054885;28;46444;-62
2022/04/01 08:53:10;;;;;;;1.33;0.70;;;4.80;72.00;;;;;;5061468;28;46414;-65
2022/04/01 08:55:36;;;;;;;2.03;1.00;;;4.80;72.20;;;;;;5058874;28;46457;-64
2022/04/01 08:58:03;;;;;;;1.03;0.73;;;4.80;72.30;;;;;;5060204;28;46465;-63
2022/04/01 09:00:29;;;;;;;1.97;1.57;;;4.90;73.30;;;;;;5059086;28;48604;-65
2022/04/01 09:03:06;;;;;;;1.10;0.80;;;5.00;71.90;;;;;;5060930;28;46426;-63
2022/04/01 09:05:32;;;;;;;1.00;0.70;;;5.00;71.70;;;;;;5062558;28;46297;-63
2022/04/01 09:08:08;;;;;;;1.40;0.80;;;5.00;71.70;;;;;;5060328;28;45838;-64
2022/04/01 09:10:57;;;;;;;1.40;0.90;;;5.10;71.50;;;;;;5059227;28;46361;-67
2022/04/01 09:13:25;;;;;;;1.17;0.80;;;5.20;71.00;;;;;;5060814;28;46599;-65
2022/04/01 09:15:51;;;;;;;2.07;1.00;;;5.00;71.10;;;;;;5060747;28;46435;-66
2022/04/01 09:18:38;;;;;;;1.17;0.87;;;5.00;71.60;;;;;;5052797;28;46484;-70
2022/04/01 09:21:05;;;;;;;2.03;1.37;;;4.90;71.60;;;;;;5057032;28;46347;-66
2022/04/01 09:23:31;;;;;;;2.10;1.50;;;4.80;71.60;;;;;;5060147;28;46459;-66
2022/04/01 09:25:58;;;;;;;2.20;1.50;;;4.80;71.80;;;;;;5060645;28;46464;-63
2022/04/01 09:28:32;;;;;;;2.57;1.97;;;4.90;71.70;;;;;;5064678;28;46449;-66
2022/04/01 09:30:59;;;;;;;2.50;1.97;;;4.90;71.60;;;;;;5061670;28;46444;-66
2022/04/01 09:33:48;;;;;;;3.10;1.63;;;4.90;71.80;;;;;;5060235;28;46503;-64
2022/04/01 09:36:26;;;;;;;3.57;2.20;;;4.90;71.70;;;;;;5059614;28;45852;-67
2022/04/01 09:38:57;;;;;;;2.53;2.20;;;5.00;72.20;;;;;;5057091;28;46294;-66
2022/04/01 09:42:09;;;;;;;3.00;2.00;;;4.90;71.80;;;;;;5058092;28;46660;-69
2022/04/01 09:44:36;;;;;;;3.83;2.20;;;4.70;71.90;;;;;;4946856;28;46590;-67
2022/04/01 09:47:05;;;;;;;3.00;2.50;;;4.70;72.40;;;;;;4947208;28;45899;-66
2022/04/01 09:49:34;;;;;;;3.27;2.47;;;4.70;72.30;;;;;;5009336;28;46403;-66
2022/04/01 09:52:00;;;;;;;4.10;2.40;;;4.80;72.20;;;;;;5059400;28;46459;-66
2022/04/01 09:54:27;;;;;;;3.20;2.10;;;4.90;71.90;;;;;;5061796;28;46354;-66
2022/04/01 09:56:55;;;;;;;3.10;2.50;;;4.80;71.70;;;;;;5065146;28;46597;-66
2022/04/01 09:59:23;;;;;;;4.53;1.60;;;4.80;71.80;;;;;;5061263;28;46643;-63
2022/04/01 10:01:49;;;;;;;2.73;1.73;;;4.80;71.90;;;;;;5059347;28;47127;-65
2022/04/01 10:04:15;;;;;;;2.20;1.67;;;4.70;71.90;;;;;;5060082;28;46375;-65
2022/04/01 10:06:41;;;;;;;2.40;1.60;;;4.60;72.40;;;;;;5059854;28;45817;-66
2022/04/01 10:09:10;;;;;;;1.73;1.10;;;4.60;72.50;;;;;;5059608;28;46549;-65
2022/04/01 10:11:38;;;;;;;2.00;1.00;;;4.50;72.70;;;;;;5059095;28;46490;-65
2022/04/01 10:14:15;;;;;;;1.97;1.33;;;4.50;72.70;;;;;;5057843;28;46014;-64
2022/04/01 10:16:43;;;;;;;1.47;1.10;;;4.40;73.10;;;;;;5058679;28;45917;-64
2022/04/01 10:19:17;;;;;;;1.30;1.00;;;4.30;73.00;;;;;;5053881;28;46558;-65
2022/04/01 10:21:45;;;;;;;1.20;1.00;;;4.40;72.90;;;;;;5058228;28;47254;-64
2022/04/01 10:24:32;;;;;;;2.17;1.10;;;4.50;72.30;;;;;;5060340;28;46481;-64
2022/04/01 10:27:04;;;;;;;1.47;1.07;;;4.60;72.00;;;;;;5058672;28;46340;-65
2022/04/01 10:29:31;;;;;;;3.07;1.37;;;4.50;71.90;;;;;;5061490;28;46379;-64
2022/04/01 10:32:30;;;;;;;1.73;1.00;;;4.50;72.30;;;;;;5059858;28;46290;-66
2022/04/01 10:35:00;;;;;;;1.00;0.80;;;4.30;73.10;;;;;;5059022;28;45829;-65
2022/04/01 10:37:28;;;;;;;2.23;1.20;;;4.20;73.00;;;;;;5060716;28;46280;-65
2022/04/01 10:40:00;;;;;;;7.03;1.30;;;4.20;72.90;;;;;;5060829;28;46421;-63
2022/04/01 10:42:32;;;;;;;7.33;1.10;;;4.20;72.90;;;;;;5057748;28;46389;-64
2022/04/01 10:45:01;;;;;;;3.45;1.35;;;4.10;73.10;;;;;;5059507;28;46530;-66
2022/04/01 10:53:38;;;;;;;4.10;1.03;;;4.20;73.90;;;;;;5058678;28;46445;-64
2022/04/01 10:56:25;;;;;;;2.20;1.05;;;4.30;73.10;;;;;;5058736;28;46401;-64
2022/04/01 10:59:03;;;;;;;1.63;1.07;;;4.30;73.10;;;;;;5058599;28;46347;-64
2022/04/01 11:01:29;;;;;;;1.17;0.87;;;4.40;73.20;;;;;;5058242;28;46370;-65
2022/04/01 11:04:10;;;;;;;2.97;1.60;;;4.50;73.20;;;;;;5060281;28;46441;-66
2022/04/01 11:06:56;;;;;;;1.83;1.10;;;4.40;73.20;;;;;;5055065;28;46372;-66
2022/04/01 11:09:50;;;;;;;2.40;1.40;;;4.40;73.20;;;;;;5056403;28;46250;-63
2022/04/01 11:12:15;;;;;;;2.10;1.17;;;4.50;73.20;;;;;;5058509;28;46331;-64
2022/04/01 11:17:27;;;;;;;1.90;1.10;;;4.50;73.20;;;;;;5050739;28;46617;-65
2022/04/01 11:20:09;;;;;;;2.30;1.30;;;4.60;73.30;;;;;;5057377;28;46557;-65
2022/04/01 11:22:40;;;;;;;2.50;1.60;;;4.70;73.30;;;;;;5057187;28;46426;-64
2022/04/01 11:25:11;;;;;;;2.80;1.30;;;4.70;72.40;;;;;;5054287;28;46638;-66
2022/04/01 11:27:47;;;;;;;3.15;1.65;;;4.70;72.70;;;;;;5047795;28;46419;-65
2022/04/01 11:30:15;;;;;;;2.40;1.20;;;4.70;72.40;;;;;;5058252;28;46208;-64
2022/04/01 11:32:44;;;;;;;2.43;1.53;;;4.80;72.30;;;;;;5050514;28;46489;-64
2022/04/01 11:35:11;;;;;;;1.20;0.97;;;5.00;71.80;;;;;;5058637;28;47190;-64
2022/04/01 11:37:42;;;;;;;2.00;1.20;;;5.20;71.50;;;;;;5056240;28;46419;-64
2022/04/01 11:40:19;;;;;;;2.13;1.13;;;5.30;70.90;;;;;;5051188;28;46410;-64
2022/04/01 11:42:58;;;;;;;1.40;0.80;;;5.40;70.60;;;;;;5052076;28;46416;-66
2022/04/01 11:45:26;;;;;;;1.20;1.00;;;5.60;70.50;;;;;;5057875;28;46348;-65
2022/04/01 11:47:52;;;;;;;2.53;1.23;;;5.80;70.10;;;;;;5056876;28;46248;-64
2022/04/01 11:50:20;;;;;;;1.63;1.20;;;5.80;69.40;;;;;;5047088;28;46303;-64
2022/04/01 11:52:50;;;;;;;2.90;1.57;;;5.80;69.50;;;;;;5057220;28;46495;-66
2022/04/01 11:55:20;;;;;;;5.33;1.77;;;5.80;69.80;;;;;;5059605;28;46483;-65
2022/04/01 11:57:47;;;;;;;3.20;1.87;;;5.70;69.90;;;;;;5056025;28;45920;-65
2022/04/01 12:00:15;;;;;;;1.50;1.13;;;5.50;70.10;;;;;;5056385;28;46473;-65
2022/04/01 12:02:42;;;;;;;2.03;1.37;;;5.40;70.40;;;;;;5054091;28;46400;-68
2022/04/01 12:05:08;;;;;;;3.30;1.10;;;5.40;70.50;;;;;;5040422;28;48275;-64
2022/04/01 12:10:25;;;;;;;1.33;0.73;;;5.30;70.70;;;;;;5058616;28;46448;-64
2022/04/01 12:13:02;;;;;;;4.03;1.00;;;5.30;70.50;;;;;;5058950;28;46633;-67
2022/04/01 12:15:36;;;;;;;1.83;1.20;;;5.50;70.20;;;;;;5055887;28;46276;-65
2022/04/01 12:18:23;;;;;;;2.27;1.20;;;5.60;70.00;;;;;;5055596;28;46286;-65
2022/04/01 12:20:54;;;;;;;1.10;0.80;;;5.50;69.90;;;;;;5058150;28;46369;-64
2022/04/01 12:23:22;;;;;;;2.83;1.27;;;5.50;70.00;;;;;;5058729;28;46425;-66
2022/04/01 12:25:52;;;;;;;3.10;1.40;;;5.50;69.70;;;;;;5061534;28;46409;-66
2022/04/01 12:28:19;;;;;;;2.20;1.40;;;5.60;69.80;;;;;;5060762;28;46330;-65
2022/04/01 12:30:55;;;;;;;2.90;1.50;;;5.40;70.00;;;;;;5061192;28;46378;-63
2022/04/01 12:33:30;;;;;;;1.20;0.87;;;5.40;70.20;;;;;;5059875;28;46386;-64
2022/04/01 12:36:07;;;;;;;3.00;1.23;;;5.40;70.40;;;;;;5060075;28;47265;-63
2022/04/01 12:38:38;;;;;;;2.23;1.67;;;5.50;70.00;;;;;;5061238;28;46473;-67
2022/04/01 12:41:14;;;;;;;1.73;1.30;;;5.60;69.70;;;;;;5062327;28;46382;-67
2022/04/01 12:43:43;;;;;;;1.00;0.80;;;5.70;69.50;;;;;;5061232;28;46496;-64
2022/04/01 12:46:11;;;;;;;1.00;0.80;;;5.70;69.50;;;;;;5061496;28;46433;-67
2022/04/01 12:48:50;;;;;;;1.30;0.90;;;5.90;68.80;;;;;;5062374;28;46638;-64
2022/04/01 12:51:18;;;;;;;2.07;1.33;;;6.10;68.20;;;;;;5062566;28;46353;-64
2022/04/01 12:54:11;;;;;;;1.73;0.93;;;6.00;67.90;;;;;;5057119;28;46429;-64
2022/04/01 12:56:44;;;;;;;1.07;0.80;;;6.00;68.30;;;;;;5059029;28;46379;-63
2022/04/01 12:59:16;;;;;;;1.27;0.90;;;6.10;67.90;;;;;;5062082;28;46342;-64
2022/04/01 13:01:43;;;;;;;2.43;1.50;;;6.00;67.90;;;;;;5059146;28;46491;-63
2022/04/01 13:04:17;;;;;;;2.60;1.27;;;6.00;67.90;;;;;;5058663;28;45763;-66
2022/04/01 13:06:43;;;;;;;1.90;1.37;;;6.10;67.80;;;;;;5042633;28;46407;-68
2022/04/01 13:09:11;;;;;;;2.63;1.90;;;6.00;68.30;;;;;;5059949;28;45835;-67
2022/04/01 13:11:46;;;;;;;2.37;1.33;;;6.10;68.50;;;;;;5058334;28;46522;-66
2022/04/01 13:14:26;;;;;;;1.93;1.10;;;6.30;68.20;;;;;;5053725;28;46533;-66
2022/04/01 13:16:54;;;;;;;1.20;0.90;;;6.30;67.50;;;;;;5058318;28;48646;-66
2022/04/01 13:19:26;;;;;;;4.20;1.70;;;6.30;67.80;;;;;;5058471;28;46329;-64
2022/04/01 13:22:02;;;;;;;1.83;1.10;;;6.30;67.80;;;;;;5058785;28;46418;-68
2022/04/01 13:24:43;;;;;;;1.20;0.93;;;6.50;67.60;;;;;;5056912;28;45913;-65
2022/04/01 13:27:12;;;;;;;1.97;1.03;;;6.50;67.00;;;;;;5056068;28;46482;-64
2022/04/01 13:29:41;;;;;;;3.10;1.47;;;6.40;67.10;;;;;;5057812;28;46430;-66